createdAt,value
2018-08-30T00:01:29.597Z,20.30
2018-08-30T00:04:00.089Z,10.90
2018-08-30T00:06:30.626Z,11.60
2018-08-30T00:09:01.122Z,12.47
2018-08-30T00:11:31.615Z,11.53
2018-08-30T00:14:02.054Z,14.40
2018-08-30T00:16:32.510Z,11.20
2018-08-30T00:19:03.034Z,11.90
2018-08-30T00:21:33.720Z,15.87
2018-08-30T00:24:04.272Z,16.90
2018-08-30T00:26:34.437Z,10.17
2018-08-30T00:29:04.922Z,11.63
2018-08-30T00:31:35.323Z,11.80
2018-08-30T00:34:05.847Z,11.97
2018-08-30T00:36:36.530Z,12.00
2018-08-30T00:39:08.812Z,12.23
2018-08-30T00:41:39.150Z,12.77
2018-08-30T00:44:09.697Z,11.67
2018-08-30T00:46:40.159Z,12.50
2018-08-30T00:49:10.684Z,11.83
2018-08-30T00:51:40.902Z,11.27
2018-08-30T00:54:11.263Z,12.97
2018-08-30T00:56:41.816Z,12.50
2018-08-30T00:59:12.519Z,12.37
2018-08-30T01:01:42.887Z,12.23
2018-08-30T01:04:13.114Z,14.00
2018-08-30T01:06:44.103Z,11.07
2018-08-30T01:09:14.584Z,13.00
2018-08-30T01:11:45.042Z,12.10
2018-08-30T01:14:15.125Z,15.17
2018-08-30T01:16:46.327Z,12.73
2018-08-30T01:19:16.715Z,16.43
2018-08-30T01:21:47.158Z,11.93
2018-08-30T01:24:17.667Z,11.33
2018-08-30T01:26:48.336Z,11.00
2018-08-30T01:29:18.636Z,13.23
2018-08-30T01:31:49.251Z,12.00
2018-08-30T01:34:19.735Z,12.67
2018-08-30T01:36:50.145Z,17.57
2018-08-30T01:39:20.299Z,15.30
2018-08-30T01:41:50.793Z,16.87
2018-08-30T01:44:21.255Z,11.63
2018-08-30T01:46:51.736Z,14.13
2018-08-30T01:49:22.260Z,13.10
2018-08-30T01:51:52.681Z,14.63
2018-08-30T01:54:23.300Z,13.03
2018-08-30T01:56:53.747Z,11.10
2018-08-30T01:59:24.069Z,12.00
2018-08-30T02:01:54.492Z,13.90
2018-08-30T02:04:25.018Z,13.20
2018-08-30T02:06:55.430Z,14.10
2018-08-30T02:09:25.832Z,12.33
2018-08-30T02:11:56.315Z,13.67
2018-08-30T02:14:26.759Z,14.33
2018-08-30T02:16:57.393Z,15.90
2018-08-30T02:19:27.666Z,11.00
2018-08-30T02:21:58.447Z,12.40
2018-08-30T02:24:29.042Z,13.77
2018-08-30T02:26:59.507Z,22.27
2018-08-30T02:29:29.825Z,14.20
2018-08-30T02:32:00.158Z,12.03
2018-08-30T02:34:30.672Z,12.83
2018-08-30T02:37:01.206Z,12.90
2018-08-30T02:39:31.698Z,14.50
2018-08-30T02:42:02.363Z,13.40
2018-08-30T02:44:32.857Z,14.57
2018-08-30T02:47:03.526Z,13.13
2018-08-30T02:49:33.787Z,15.40
2018-08-30T02:52:04.238Z,12.70
2018-08-30T02:54:34.749Z,15.43
2018-08-30T02:57:05.458Z,14.27
2018-08-30T02:59:35.933Z,13.67
2018-08-30T03:02:06.478Z,13.50
2018-08-30T03:04:36.786Z,14.20
2018-08-30T03:07:07.311Z,13.63
2018-08-30T03:09:37.744Z,17.50
2018-08-30T03:12:08.145Z,11.50
2018-08-30T03:14:38.617Z,11.87
2018-08-30T03:17:09.722Z,12.97
2018-08-30T03:19:40.311Z,10.03
2018-08-30T03:22:10.904Z,11.00
2018-08-30T03:24:41.337Z,11.90
2018-08-30T03:27:11.809Z,11.20
2018-08-30T03:29:42.023Z,13.37
2018-08-30T03:32:12.594Z,13.57
2018-08-30T03:34:43.081Z,14.30
2018-08-30T03:37:13.515Z,11.83
2018-08-30T03:39:43.833Z,17.27
2018-08-30T03:42:14.052Z,15.60
2018-08-30T03:44:44.387Z,18.47
2018-08-30T03:47:14.805Z,18.47
2018-08-30T03:49:45.099Z,16.67
2018-08-30T03:52:15.408Z,14.17
2018-08-30T03:54:45.848Z,20.30
2018-08-30T03:57:16.123Z,18.90
2018-08-30T03:59:46.604Z,14.73
2018-08-30T04:02:17.159Z,15.10
2018-08-30T04:04:47.405Z,26.13
2018-08-30T04:07:17.817Z,15.90
2018-08-30T04:09:48.281Z,15.00
2018-08-30T04:12:18.763Z,13.93
2018-08-30T04:14:49.715Z,15.60
2018-08-30T04:17:20.035Z,14.70
2018-08-30T04:19:50.556Z,15.10
2018-08-30T04:22:21.329Z,13.67
2018-08-30T04:24:51.912Z,17.93
2018-08-30T04:27:22.143Z,15.47
2018-08-30T04:29:52.615Z,19.70
2018-08-30T04:32:23.827Z,17.97
2018-08-30T04:34:54.078Z,15.07
2018-08-30T04:37:24.569Z,19.87
2018-08-30T04:39:54.862Z,19.13
2018-08-30T04:42:25.389Z,17.93
2018-08-30T04:44:55.714Z,12.80
2018-08-30T04:47:28.888Z,16.87
2018-08-30T04:49:59.511Z,12.47
2018-08-30T04:52:30.088Z,14.80
2018-08-30T04:55:00.591Z,11.93
2018-08-30T04:57:31.052Z,11.50
2018-08-30T05:00:01.348Z,10.77
2018-08-30T05:02:31.890Z,14.00
2018-08-30T05:05:02.245Z,13.03
2018-08-30T05:07:32.660Z,10.87
2018-08-30T05:10:03.188Z,14.87
2018-08-30T05:12:33.466Z,11.33
2018-08-30T05:15:03.803Z,10.57
2018-08-30T05:17:34.363Z,11.50
2018-08-30T05:20:04.515Z,13.73
2018-08-30T05:22:34.819Z,12.10
2018-08-30T05:25:05.473Z,16.20
2018-08-30T05:27:35.970Z,12.83
2018-08-30T05:30:06.272Z,16.20
2018-08-30T05:32:36.722Z,14.93
2018-08-30T05:35:07.016Z,11.90
2018-08-30T05:37:37.468Z,12.87
2018-08-30T05:40:07.946Z,17.87
2018-08-30T05:42:38.289Z,14.27
2018-08-30T05:45:08.762Z,15.13
2018-08-30T05:47:39.053Z,12.70
2018-08-30T05:50:09.679Z,13.47
2018-08-30T05:52:40.142Z,14.23
2018-08-30T05:55:10.651Z,14.13
2018-08-30T05:57:40.967Z,16.20
2018-08-30T06:00:11.367Z,23.70
2018-08-30T06:02:41.815Z,20.20
2018-08-30T06:05:12.343Z,21.50
2018-08-30T06:07:42.567Z,15.90
2018-08-30T06:10:12.986Z,18.53
2018-08-30T06:12:43.447Z,13.73
2018-08-30T06:15:13.596Z,17.50
2018-08-30T06:17:44.064Z,17.30
2018-08-30T06:20:14.598Z,17.93
2018-08-30T06:22:45.080Z,14.67
2018-08-30T06:25:15.417Z,15.00
2018-08-30T06:27:45.804Z,16.37
2018-08-30T06:30:16.006Z,17.83
2018-08-30T06:32:46.546Z,17.07
2018-08-30T06:35:17.037Z,15.20
2018-08-30T06:37:47.600Z,17.83
2018-08-30T06:40:18.039Z,14.77
2018-08-30T06:42:48.275Z,17.20
2018-08-30T06:45:18.659Z,17.00
2018-08-30T06:47:49.122Z,18.43
2018-08-30T06:50:19.531Z,18.97
2018-08-30T06:52:49.976Z,16.60
2018-08-30T06:55:20.276Z,16.17
2018-08-30T06:57:51.509Z,16.60
2018-08-30T07:00:21.986Z,17.87
2018-08-30T07:02:58.521Z,29.87
2018-08-30T07:05:29.003Z,18.97
2018-08-30T07:07:59.343Z,20.57
2018-08-30T07:10:29.595Z,17.90
2018-08-30T07:13:00.040Z,14.67
2018-08-30T07:15:31.236Z,23.57
2018-08-30T07:18:01.660Z,17.27
2018-08-30T07:20:32.139Z,28.70
2018-08-30T07:23:02.928Z,14.50
2018-08-30T07:25:33.385Z,16.80
2018-08-30T07:28:03.983Z,33.53
2018-08-30T07:30:34.199Z,17.20
2018-08-30T07:33:04.675Z,17.90
2018-08-30T07:35:35.214Z,16.67
2018-08-30T07:38:05.641Z,19.70
2018-08-30T07:40:36.159Z,14.67
2018-08-30T07:43:06.763Z,15.63
2018-08-30T07:45:37.077Z,14.13
2018-08-30T07:48:07.649Z,15.00
2018-08-30T07:50:37.958Z,12.93
2018-08-30T07:53:08.537Z,13.33
2018-08-30T07:55:38.913Z,15.03
2018-08-30T07:58:09.241Z,14.80
2018-08-30T08:00:39.488Z,16.83
2018-08-30T08:03:09.911Z,18.13
2018-08-30T08:05:40.230Z,18.67
2018-08-30T08:08:10.567Z,16.97
2018-08-30T08:10:40.849Z,20.23
2018-08-30T08:13:11.303Z,16.40
2018-08-30T08:15:41.729Z,23.37
2018-08-30T08:18:11.958Z,18.93
2018-08-30T08:20:42.261Z,13.83
2018-08-30T08:23:12.810Z,14.10
2018-08-30T08:25:42.987Z,16.83
2018-08-30T08:28:13.443Z,16.63
2018-08-30T08:30:43.942Z,13.13
2018-08-30T08:33:14.343Z,12.37
2018-08-30T08:35:45.973Z,12.43
2018-08-30T08:38:16.398Z,14.83
2018-08-30T08:40:46.598Z,13.13
2018-08-30T08:43:16.933Z,12.53
2018-08-30T08:45:47.324Z,12.87
2018-08-30T08:48:18.673Z,11.43
2018-08-30T08:50:49.581Z,14.23
2018-08-30T08:53:20.109Z,12.60
2018-08-30T08:55:50.514Z,10.57
2018-08-30T08:58:20.911Z,11.20
2018-08-30T09:00:51.427Z,11.13
2018-08-30T09:03:21.884Z,12.73
2018-08-30T09:05:52.339Z,13.43
2018-08-30T09:08:22.635Z,13.37
2018-08-30T09:10:53.052Z,10.60
2018-08-30T09:13:23.604Z,12.30
2018-08-30T09:15:54.114Z,13.50
2018-08-30T09:18:24.577Z,12.53
2018-08-30T09:20:54.717Z,12.80
2018-08-30T09:23:25.248Z,10.90
2018-08-30T09:25:55.630Z,12.10
2018-08-30T09:28:26.011Z,10.60
2018-08-30T09:30:56.504Z,12.97
2018-08-30T09:33:26.978Z,11.60
2018-08-30T09:35:57.472Z,11.53
2018-08-30T09:38:28.006Z,9.10
2018-08-30T09:40:58.371Z,13.00
2018-08-30T09:43:28.730Z,8.20
2018-08-30T09:45:58.898Z,9.90
2018-08-30T09:48:29.325Z,12.10
2018-08-30T09:50:59.683Z,9.80
2018-08-30T09:53:30.115Z,9.63
2018-08-30T09:56:00.503Z,9.83
2018-08-30T09:58:30.933Z,8.97
2018-08-30T10:01:06.263Z,10.63
2018-08-30T10:03:36.687Z,10.83
2018-08-30T10:06:08.257Z,10.70
2018-08-30T10:08:38.624Z,7.17
2018-08-30T10:11:09.011Z,9.50
2018-08-30T10:13:39.381Z,8.53
2018-08-30T10:16:09.687Z,7.00
2018-08-30T10:18:40.174Z,6.27
2018-08-30T10:21:10.513Z,7.30
2018-08-30T10:23:40.713Z,7.77
2018-08-30T10:26:10.654Z,7.50
2018-08-30T10:28:40.633Z,7.80
2018-08-30T10:31:10.995Z,12.67
2018-08-30T10:33:41.315Z,7.70
2018-08-30T10:36:11.791Z,7.93
2018-08-30T10:38:42.278Z,8.70
2018-08-30T10:41:12.715Z,7.37
2018-08-30T10:43:43.158Z,8.03
2018-08-30T10:46:13.448Z,8.40
2018-08-30T10:48:43.911Z,7.90
2018-08-30T10:51:14.319Z,7.87
2018-08-30T10:53:44.627Z,7.97
2018-08-30T10:56:15.262Z,6.70
2018-08-30T10:58:45.438Z,8.00
2018-08-30T11:01:15.777Z,7.80
2018-08-30T11:03:46.004Z,7.77
2018-08-30T11:06:16.323Z,8.27
2018-08-30T11:08:46.701Z,8.43
2018-08-30T11:11:16.999Z,7.30
2018-08-30T11:13:47.555Z,8.20
2018-08-30T11:16:17.951Z,8.13
2018-08-30T11:18:48.295Z,7.63
2018-08-30T11:21:18.857Z,8.10
2018-08-30T11:23:49.390Z,9.50
2018-08-30T11:26:19.702Z,8.43
2018-08-30T11:28:50.081Z,8.00
2018-08-30T11:31:20.388Z,8.77
2018-08-30T11:33:50.866Z,8.07
2018-08-30T11:36:21.296Z,7.53
2018-08-30T11:38:51.825Z,8.60
2018-08-30T11:41:22.321Z,8.00
2018-08-30T11:43:52.692Z,9.40
2018-08-30T11:46:22.960Z,10.93
2018-08-30T11:48:53.257Z,8.43
2018-08-30T11:51:23.693Z,7.40
2018-08-30T11:53:54.002Z,8.90
2018-08-30T11:56:24.362Z,8.13
2018-08-30T11:58:54.911Z,7.53
2018-08-30T12:01:25.226Z,8.07
2018-08-30T12:03:57.344Z,8.40
2018-08-30T12:06:28.029Z,8.83
2018-08-30T12:08:58.243Z,9.60
2018-08-30T12:11:28.664Z,10.83
2018-08-30T12:13:59.177Z,8.67
2018-08-30T12:16:36.356Z,8.80
2018-08-30T12:19:06.773Z,6.83
2018-08-30T12:21:37.078Z,7.60
2018-08-30T12:24:07.795Z,6.90
2018-08-30T12:26:38.230Z,7.67
2018-08-30T12:29:08.918Z,15.07
2018-08-30T12:31:39.278Z,8.50
2018-08-30T12:34:09.830Z,9.17
2018-08-30T12:36:40.480Z,8.17
2018-08-30T12:39:13.033Z,8.60
2018-08-30T12:41:43.359Z,7.53
2018-08-30T12:44:13.622Z,8.37
2018-08-30T12:46:44.017Z,8.00
2018-08-30T12:49:14.575Z,7.70
2018-08-30T12:51:45.327Z,7.63
2018-08-30T12:54:15.519Z,7.70
2018-08-30T12:56:45.918Z,7.57
2018-08-30T12:59:22.422Z,7.80
2018-08-30T13:01:52.751Z,7.93
2018-08-30T13:04:23.381Z,8.53
2018-08-30T13:06:55.468Z,8.60
2018-08-30T13:09:27.292Z,8.33
2018-08-30T13:11:59.177Z,7.30
2018-08-30T13:14:29.456Z,9.03
2018-08-30T13:16:59.786Z,10.37
2018-08-30T13:19:30.298Z,9.87
2018-08-30T13:22:00.345Z,13.03
2018-08-30T13:24:30.231Z,8.90
2018-08-30T13:27:00.295Z,8.60
2018-08-30T13:29:30.722Z,7.97
2018-08-30T13:32:00.988Z,8.20
2018-08-30T13:34:31.850Z,8.50
2018-08-30T13:37:02.035Z,8.53
2018-08-30T13:39:32.647Z,7.87
2018-08-30T13:42:03.080Z,9.00
2018-08-30T13:44:33.427Z,8.50
2018-08-30T13:47:03.693Z,8.03
2018-08-30T13:49:34.220Z,8.73
2018-08-30T13:52:04.970Z,9.70
2018-08-30T13:54:35.456Z,8.87
2018-08-30T13:57:06.016Z,8.37
2018-08-30T13:59:36.777Z,10.27
2018-08-30T14:02:06.915Z,9.50
2018-08-30T14:04:37.359Z,9.93
2018-08-30T14:07:07.992Z,8.50
2018-08-30T14:09:38.480Z,9.90
2018-08-30T14:12:09.279Z,8.47
2018-08-30T14:14:39.636Z,9.53
2018-08-30T14:17:09.890Z,9.83
2018-08-30T14:19:40.397Z,9.90
2018-08-30T14:22:10.758Z,9.60
2018-08-30T14:24:41.268Z,8.63
2018-08-30T14:27:11.519Z,8.17
2018-08-30T14:29:42.075Z,7.60
2018-08-30T14:32:12.343Z,8.20
2018-08-30T14:34:42.830Z,8.43
2018-08-30T14:37:13.151Z,8.00
2018-08-30T14:39:43.524Z,9.03
2018-08-30T14:42:13.910Z,7.50
2018-08-30T14:44:44.221Z,7.93
2018-08-30T14:47:14.700Z,8.63
2018-08-30T14:49:44.982Z,7.73
2018-08-30T14:52:15.293Z,8.40
2018-08-30T14:54:45.750Z,8.80
2018-08-30T14:57:16.878Z,8.30
2018-08-30T14:59:47.147Z,8.50
2018-08-30T15:02:17.894Z,8.80
2018-08-30T15:04:48.050Z,8.40
2018-08-30T15:07:18.039Z,8.90
2018-08-30T15:09:48.068Z,7.90
2018-08-30T15:12:18.067Z,9.53
2018-08-30T15:14:48.412Z,8.43
2018-08-30T15:17:18.913Z,8.00
2018-08-30T15:19:48.910Z,7.67
2018-08-30T15:22:18.939Z,7.53
2018-08-30T15:24:49.016Z,7.87
2018-08-30T15:27:19.101Z,7.83
2018-08-30T15:29:49.754Z,7.63
2018-08-30T15:32:20.294Z,7.37
2018-08-30T15:34:50.684Z,8.17
2018-08-30T15:37:21.139Z,9.13
2018-08-30T15:39:51.805Z,7.43
2018-08-30T15:42:22.915Z,8.10
2018-08-30T15:44:53.517Z,8.13
2018-08-30T15:47:23.929Z,9.00
2018-08-30T15:49:54.311Z,5.93
2018-08-30T15:52:24.919Z,2.60
2018-08-30T15:54:55.258Z,2.03
2018-08-30T15:57:25.995Z,1.23
2018-08-30T15:59:56.355Z,2.03
2018-08-30T16:02:26.866Z,1.33
2018-08-30T16:04:57.305Z,2.80
2018-08-30T16:07:27.829Z,1.53
2018-08-30T16:09:58.320Z,1.73
2018-08-30T16:12:28.668Z,1.53
2018-08-30T16:14:59.270Z,2.03
2018-08-30T16:17:29.860Z,3.53
2018-08-30T16:20:00.318Z,1.43
2018-08-30T16:23:48.572Z,1.30
2018-08-30T16:26:19.093Z,2.33
2018-08-30T16:28:49.750Z,2.10
2018-08-30T16:31:20.097Z,4.10
2018-08-30T16:33:50.426Z,2.73
2018-08-30T16:36:21.009Z,2.30
2018-08-30T16:38:51.493Z,1.77
2018-08-30T16:41:21.907Z,1.00
2018-08-30T16:43:52.327Z,1.63
2018-08-30T16:46:22.740Z,1.77
2018-08-30T16:48:53.277Z,2.23
2018-08-30T16:51:23.789Z,2.67
2018-08-30T16:53:54.448Z,1.77
2018-08-30T16:56:24.984Z,3.23
2018-08-30T16:58:55.642Z,3.47
2018-08-30T17:01:26.167Z,2.20
2018-08-30T17:03:56.678Z,1.30
2018-08-30T17:06:27.126Z,1.47
2018-08-30T17:08:57.610Z,2.87
2018-08-30T17:11:28.217Z,8.50
2018-08-30T17:13:58.890Z,4.47
2018-08-30T17:16:29.497Z,2.93
2018-08-30T17:19:12.111Z,4.70
2018-08-30T17:21:42.605Z,1.87
2018-08-30T17:24:13.014Z,1.90
2018-08-30T17:26:43.695Z,2.20
2018-08-30T17:29:14.171Z,2.53
2018-08-30T17:31:44.495Z,3.13
2018-08-30T17:34:15.043Z,2.20
2018-08-30T17:36:45.348Z,2.40
2018-08-30T17:39:15.841Z,2.67
2018-08-30T17:41:46.384Z,3.33
2018-08-30T17:44:16.928Z,2.20
2018-08-30T17:46:47.396Z,2.53
2018-08-30T17:49:17.931Z,1.50
2018-08-30T17:51:48.574Z,3.10
2018-08-30T17:54:18.972Z,5.20
2018-08-30T17:56:49.377Z,3.13
2018-08-30T17:59:19.928Z,2.07
2018-08-30T18:01:50.640Z,2.90
2018-08-30T18:04:21.145Z,2.87
2018-08-30T18:06:52.711Z,2.13
2018-08-30T18:09:23.064Z,2.50
2018-08-30T18:11:53.775Z,2.40
2018-08-30T18:14:24.092Z,3.80
2018-08-30T18:16:54.654Z,2.40
2018-08-30T18:19:25.260Z,4.37
2018-08-30T18:21:55.581Z,3.13
2018-08-30T18:24:26.027Z,2.27
2018-08-30T18:26:56.555Z,4.20
2018-08-30T18:29:27.062Z,3.00
2018-08-30T18:31:57.612Z,3.07
2018-08-30T18:34:28.152Z,3.73
2018-08-30T18:36:58.442Z,2.43
2018-08-30T18:39:28.879Z,6.00
2018-08-30T18:41:59.294Z,3.40
2018-08-30T18:44:29.933Z,3.00
2018-08-30T18:47:00.306Z,3.27
2018-08-30T18:49:31.006Z,2.97
2018-08-30T18:52:01.571Z,2.17
2018-08-30T18:54:32.044Z,4.00
2018-08-30T18:57:02.476Z,3.97
2018-08-30T18:59:33.009Z,3.73
2018-08-30T19:02:03.472Z,5.10
2018-08-30T19:04:33.810Z,3.23
2018-08-30T19:07:04.235Z,3.17
2018-08-30T19:09:34.894Z,3.00
2018-08-30T19:12:05.634Z,3.70
2018-08-30T19:14:36.543Z,3.10
2018-08-30T19:17:13.231Z,4.43
2018-08-30T19:19:44.012Z,3.63
2018-08-30T19:22:14.477Z,4.33
2018-08-30T19:24:49.923Z,2.63
2018-08-30T19:27:20.417Z,2.57
2018-08-30T19:29:55.697Z,4.07
2018-08-30T19:32:26.492Z,9.50
2018-08-30T19:35:01.463Z,5.73
2018-08-30T19:37:32.256Z,6.27
2018-08-30T19:40:02.875Z,3.00
2018-08-30T19:42:33.478Z,5.17
2018-08-30T19:45:03.891Z,5.20
2018-08-30T19:47:34.483Z,6.13
2018-08-30T19:50:05.204Z,3.50
2018-08-30T19:52:35.694Z,6.10
2018-08-30T19:55:06.284Z,7.93
2018-08-30T19:57:36.913Z,4.83
2018-08-30T20:00:07.524Z,6.27
2018-08-30T20:02:37.952Z,4.97
2018-08-30T20:05:08.349Z,2.60
2018-08-30T20:07:38.928Z,4.30
2018-08-30T20:10:09.722Z,4.20
2018-08-30T20:12:40.271Z,3.40
2018-08-30T20:15:10.597Z,4.53
2018-08-30T20:17:43.838Z,2.50
2018-08-30T20:20:14.282Z,3.00
2018-08-30T20:22:44.636Z,3.63
2018-08-30T20:25:15.017Z,3.43
2018-08-30T20:27:45.605Z,3.93
2018-08-30T20:30:15.940Z,3.97
2018-08-30T20:32:46.586Z,3.90
2018-08-30T20:35:17.122Z,3.47
2018-08-30T20:37:47.499Z,3.43
2018-08-30T20:40:18.162Z,3.70
2018-08-30T20:42:48.316Z,3.30
2018-08-30T20:45:18.809Z,3.90
2018-08-30T20:47:49.346Z,3.83
2018-08-30T20:50:19.810Z,4.00
2018-08-30T20:52:50.266Z,3.57
2018-08-30T20:55:20.669Z,5.07
2018-08-30T20:57:51.218Z,3.13
2018-08-30T21:00:21.745Z,2.23
2018-08-30T21:02:52.136Z,5.00
2018-08-30T21:05:22.612Z,3.03
2018-08-30T21:07:53.062Z,3.50
2018-08-30T21:10:23.674Z,8.03
2018-08-30T21:12:54.300Z,4.67
2018-08-30T21:15:24.876Z,2.73
2018-08-30T21:17:55.457Z,3.63
2018-08-30T21:20:25.803Z,3.20
2018-08-30T21:22:56.156Z,3.63
2018-08-30T21:25:26.570Z,5.37
2018-08-30T21:27:57.181Z,3.53
2018-08-30T21:30:27.740Z,4.10
2018-08-30T21:32:58.229Z,2.97
2018-08-30T21:35:28.693Z,4.57
2018-08-30T21:37:59.142Z,4.87
2018-08-30T21:40:29.641Z,4.00
2018-08-30T21:43:00.246Z,3.60
2018-08-30T21:45:30.780Z,3.00
2018-08-30T21:48:01.041Z,4.10
2018-08-30T21:50:31.574Z,4.30
2018-08-30T21:53:02.162Z,4.33
2018-08-30T21:55:32.691Z,2.67
2018-08-30T21:58:03.272Z,3.20
2018-08-30T22:00:33.518Z,2.83
2018-08-30T22:03:04.028Z,3.53
2018-08-30T22:05:35.574Z,3.47
2018-08-30T22:08:05.871Z,3.50
2018-08-30T22:10:36.317Z,8.20
2018-08-30T22:13:06.841Z,4.73
2018-08-30T22:15:37.314Z,2.97
2018-08-30T22:18:07.869Z,4.50
2018-08-30T22:20:38.079Z,3.13
2018-08-30T22:23:08.523Z,2.93
2018-08-30T22:25:42.267Z,4.73
2018-08-30T22:28:12.797Z,3.53
2018-08-30T22:30:43.473Z,4.80
2018-08-30T22:33:14.195Z,4.17
2018-08-30T22:35:44.522Z,3.37
2018-08-30T22:38:14.965Z,5.93
2018-08-30T22:40:45.403Z,4.20
2018-08-30T22:43:15.743Z,3.33
2018-08-30T22:45:46.072Z,3.63
2018-08-30T22:48:16.223Z,4.30
2018-08-30T22:50:46.701Z,3.97
2018-08-30T22:53:17.207Z,3.70
2018-08-30T22:55:47.525Z,2.93
2018-08-30T22:58:17.966Z,3.50
2018-08-30T23:00:48.482Z,3.27
2018-08-30T23:03:18.693Z,2.40
2018-08-30T23:05:48.928Z,3.87
2018-08-30T23:08:19.429Z,4.17
2018-08-30T23:10:49.867Z,4.00
2018-08-30T23:13:20.671Z,3.63
2018-08-30T23:15:50.912Z,3.80
2018-08-30T23:18:21.334Z,3.47
2018-08-30T23:20:51.776Z,3.73
2018-08-30T23:23:22.249Z,3.03
2018-08-30T23:25:52.537Z,6.70
2018-08-30T23:28:22.982Z,7.83
2018-08-30T23:30:53.526Z,5.13
2018-08-30T23:33:24.016Z,4.20
2018-08-30T23:35:54.786Z,4.20
2018-08-30T23:38:25.426Z,3.10
2018-08-30T23:40:55.578Z,5.60
2018-08-30T23:43:26.023Z,3.70
2018-08-30T23:45:56.444Z,3.80
2018-08-30T23:48:26.922Z,3.80
2018-08-30T23:50:57.123Z,2.90
2018-08-30T23:53:27.486Z,4.00
2018-08-30T23:55:57.907Z,3.77
2018-08-30T23:58:44.713Z,4.10
